createdAt,value
2018-06-08T00:01:04.197Z,0
2018-06-08T00:02:14.280Z,0
2018-06-08T00:03:24.358Z,0
2018-06-08T00:04:34.171Z,0
2018-06-08T00:05:44.337Z,0
2018-06-08T00:06:54.146Z,0
2018-06-08T00:08:04.227Z,0
2018-06-08T00:09:14.312Z,0
2018-06-08T00:10:24.381Z,0
2018-06-08T00:11:34.447Z,0
2018-06-08T00:12:44.520Z,0
2018-06-08T00:13:54.334Z,0
2018-06-08T00:15:04.414Z,0
2018-06-08T00:16:14.492Z,0
2018-06-08T00:17:24.580Z,0
2018-06-08T00:18:34.657Z,0
2018-06-08T00:19:44.749Z,0
2018-06-08T00:20:54.597Z,0
2018-06-08T00:22:04.686Z,0
2018-06-08T00:23:14.777Z,0
2018-06-08T00:24:24.878Z,0
2018-06-08T00:25:34.977Z,0
2018-06-08T00:26:45.057Z,0
2018-06-08T00:27:55.137Z,0
2018-06-08T00:29:05.211Z,0
2018-06-08T00:30:15.318Z,0
2018-06-08T00:31:24.875Z,0
2018-06-08T00:32:34.707Z,0
2018-06-08T00:33:44.795Z,0
2018-06-08T00:34:54.858Z,0
2018-06-08T00:36:04.936Z,0
2018-06-08T00:37:14.749Z,0
2018-06-08T00:38:24.839Z,0
2018-06-08T00:39:34.921Z,0
2018-06-08T00:40:45.020Z,0
2018-06-08T00:41:55.103Z,0
2018-06-08T00:43:05.172Z,0
2018-06-08T00:44:14.984Z,0
2018-06-08T00:45:25.399Z,0
2018-06-08T00:46:35.698Z,0
2018-06-08T00:47:45.771Z,0
2018-06-08T00:48:55.833Z,0
2018-06-08T00:50:05.904Z,0
2018-06-08T00:51:15.980Z,0
2018-06-08T00:52:26.032Z,0
2018-06-08T00:53:36.093Z,0
2018-06-08T00:54:46.177Z,0
2018-06-08T00:55:56.262Z,0
2018-06-08T00:57:06.102Z,0
2018-06-08T00:58:16.171Z,0
2018-06-08T00:59:25.976Z,0
2018-06-08T01:00:36.054Z,0
2018-06-08T01:01:46.135Z,0
2018-06-08T01:02:56.226Z,0
2018-06-08T01:04:06.054Z,0
2018-06-08T01:05:15.868Z,0
2018-06-08T01:06:25.987Z,0
2018-06-08T01:07:36.059Z,0
2018-06-08T01:08:45.869Z,0
2018-06-08T01:09:55.416Z,0
2018-06-08T01:11:05.535Z,0
2018-06-08T01:12:15.674Z,0
2018-06-08T01:13:25.767Z,0
2018-06-08T01:14:35.835Z,0
2018-06-08T01:15:45.648Z,0
2018-06-08T01:16:55.447Z,0
2018-06-08T01:18:05.558Z,0
2018-06-08T01:19:15.647Z,0
2018-06-08T01:20:25.473Z,0
2018-06-08T01:21:35.298Z,0
2018-06-08T01:22:45.478Z,0
2018-06-08T01:23:55.291Z,0
2018-06-08T01:25:05.357Z,0
2018-06-08T01:26:15.422Z,0
2018-06-08T01:27:25.553Z,0
2018-06-08T01:28:35.356Z,0
2018-06-08T01:29:45.441Z,0
2018-06-08T01:30:55.269Z,0
2018-06-08T01:32:05.358Z,0
2018-06-08T01:33:15.504Z,0
2018-06-08T01:34:25.575Z,0
2018-06-08T01:35:35.645Z,0
2018-06-08T01:36:45.713Z,0
2018-06-08T01:37:55.805Z,0
2018-06-08T01:39:05.884Z,0
2018-06-08T01:40:15.971Z,0
2018-06-08T01:41:26.043Z,0
2018-06-08T01:42:36.148Z,0
2018-06-08T01:43:46.219Z,0
2018-06-08T01:44:56.311Z,0
2018-06-08T01:46:06.125Z,0
2018-06-08T01:47:16.207Z,0
2018-06-08T01:48:26.282Z,0
2018-06-08T01:49:36.364Z,0
2018-06-08T01:50:46.484Z,0
2018-06-08T01:51:56.562Z,0
2018-06-08T01:53:06.630Z,0
2018-06-08T01:54:16.706Z,0
2018-06-08T01:55:26.524Z,0
2018-06-08T01:56:36.599Z,0
2018-06-08T01:57:46.669Z,0
2018-06-08T01:58:56.748Z,0
2018-06-08T02:00:06.828Z,0
2018-06-08T02:01:16.901Z,0
2018-06-08T02:02:26.974Z,0
2018-06-08T02:03:36.528Z,0
2018-06-08T02:04:46.337Z,0
2018-06-08T02:05:56.432Z,0
2018-06-08T02:07:06.507Z,0
2018-06-08T02:08:16.569Z,0
2018-06-08T02:09:26.654Z,0
2018-06-08T02:10:36.472Z,0
2018-06-08T02:11:46.299Z,0
2018-06-08T02:12:56.375Z,0
2018-06-08T02:14:06.462Z,0
2018-06-08T02:15:16.284Z,0
2018-06-08T02:16:26.347Z,0
2018-06-08T02:17:36.434Z,0
2018-06-08T02:18:46.517Z,0
2018-06-08T02:19:56.584Z,0
2018-06-08T02:21:06.387Z,0
2018-06-08T02:22:16.210Z,0
2018-06-08T02:23:26.297Z,0
2018-06-08T02:24:36.363Z,0
2018-06-08T02:25:46.494Z,0
2018-06-08T02:26:56.562Z,0
2018-06-08T02:28:06.635Z,0
2018-06-08T02:29:16.443Z,0
2018-06-08T02:30:26.527Z,0
2018-06-08T02:31:36.634Z,0
2018-06-08T02:32:46.709Z,0
2018-06-08T02:33:56.785Z,0
2018-06-08T02:35:06.614Z,0
2018-06-08T02:36:16.686Z,0
2018-06-08T02:37:26.782Z,0
2018-06-08T02:38:36.858Z,0
2018-06-08T02:39:46.680Z,0
2018-06-08T02:40:56.769Z,0
2018-06-08T02:42:06.578Z,0
2018-06-08T02:43:16.372Z,0
2018-06-08T02:44:26.440Z,0
2018-06-08T02:45:36.528Z,0
2018-06-08T02:46:46.619Z,0
2018-06-08T02:47:56.762Z,0
2018-06-08T02:49:06.840Z,0
2018-06-08T02:50:16.914Z,0
2018-06-08T02:51:27.007Z,0
2018-06-08T02:52:37.079Z,0
2018-06-08T02:53:47.179Z,0
2018-06-08T02:54:57.253Z,0
2018-06-08T02:56:07.094Z,0
2018-06-08T02:57:17.195Z,0
2018-06-08T02:58:27.277Z,0
2018-06-08T02:59:37.085Z,0
2018-06-08T03:00:46.960Z,0
2018-06-08T03:01:57.032Z,0
2018-06-08T03:03:06.850Z,0
2018-06-08T03:35:08.692Z,20
2018-06-08T03:36:18.755Z,25
2018-06-08T03:37:28.565Z,25
2018-06-08T03:38:38.650Z,25
2018-06-08T03:39:48.707Z,25
2018-06-08T03:40:59.572Z,25
2018-06-08T03:42:09.377Z,30
2018-06-08T03:43:19.178Z,30
2018-06-08T03:44:29.232Z,30
2018-06-08T03:45:39.308Z,35
2018-06-08T03:46:49.360Z,35
2018-06-08T03:47:59.432Z,35
2018-06-08T03:49:09.641Z,35
2018-06-08T03:50:19.447Z,35
2018-06-08T03:51:29.516Z,40
2018-06-08T03:52:39.375Z,35
2018-06-08T03:53:49.434Z,35
2018-06-08T03:54:59.247Z,40
2018-06-08T03:56:09.479Z,45
2018-06-08T03:57:19.285Z,55
2018-06-08T03:58:29.102Z,60
2018-06-08T03:59:39.172Z,60
2018-06-08T04:00:49.237Z,65
2018-06-08T04:01:59.065Z,65
2018-06-08T04:03:09.147Z,65
2018-06-08T04:04:19.214Z,55
2018-06-08T04:05:29.037Z,50
2018-06-08T04:06:39.098Z,45
2018-06-08T04:07:49.166Z,50
2018-06-08T04:08:58.967Z,50
2018-06-08T04:10:08.526Z,55
2018-06-08T04:11:18.612Z,60
2018-06-08T04:12:28.449Z,70
2018-06-08T04:13:38.524Z,75
2018-06-08T04:14:48.624Z,85
2018-06-08T04:15:58.512Z,95
2018-06-08T04:17:08.345Z,100
2018-06-08T04:18:18.416Z,100
2018-06-08T04:19:28.497Z,155
2018-06-08T04:20:38.304Z,165
2018-06-08T04:21:48.424Z,105
2018-06-08T04:22:58.479Z,100
2018-06-08T04:24:08.272Z,165
2018-06-08T04:25:18.116Z,190
2018-06-08T04:26:28.205Z,175
2018-06-08T04:27:38.275Z,200
2018-06-08T04:28:48.352Z,210
2018-06-08T04:29:58.431Z,200
2018-06-08T04:31:08.496Z,200
2018-06-08T04:32:18.346Z,210
2018-06-08T04:33:28.179Z,210
2018-06-08T04:34:38.250Z,230
2018-06-08T04:35:48.055Z,220
2018-06-08T04:36:58.132Z,220
2018-06-08T04:38:08.206Z,210
2018-06-08T04:39:18.357Z,250
2018-06-08T04:40:28.054Z,285
2018-06-08T04:41:38.207Z,320
2018-06-08T04:42:48.272Z,350
2018-06-08T04:43:58.101Z,355
2018-06-08T04:45:08.181Z,350
2018-06-08T04:46:18.262Z,350
2018-06-08T04:47:28.334Z,380
2018-06-08T04:48:38.420Z,360
2018-06-08T04:49:48.481Z,345
2018-06-08T04:50:58.575Z,350
2018-06-08T04:52:08.654Z,340
2018-06-08T04:53:18.741Z,340
2018-06-08T04:54:28.816Z,350
2018-06-08T04:55:38.932Z,345
2018-06-08T04:56:49.064Z,320
2018-06-08T04:57:59.145Z,355
2018-06-08T04:59:09.231Z,340
2018-06-08T05:00:19.053Z,355
2018-06-08T05:01:29.351Z,365
2018-06-08T05:02:38.905Z,375
2018-06-08T05:03:48.992Z,355
2018-06-08T05:04:59.077Z,340
2018-06-08T05:06:09.147Z,340
2018-06-08T05:07:19.217Z,340
2018-06-08T05:08:29.300Z,350
2018-06-08T05:09:39.454Z,325
2018-06-08T05:10:49.255Z,360
2018-06-08T05:11:59.335Z,350
2018-06-08T05:13:09.412Z,320
2018-06-08T05:14:19.233Z,330
2018-06-08T05:15:29.310Z,305
2018-06-08T05:16:39.399Z,295
2018-06-08T05:17:49.218Z,220
2018-06-08T05:18:59.310Z,205
2018-06-08T05:20:09.407Z,220
2018-06-08T05:21:19.488Z,275
2018-06-08T05:22:29.585Z,290
2018-06-08T05:23:39.398Z,320
2018-06-08T05:24:49.195Z,315
2018-06-08T05:25:59.321Z,330
2018-06-08T05:27:09.413Z,330
2018-06-08T05:28:19.491Z,215
2018-06-08T05:29:29.313Z,325
2018-06-08T05:30:39.384Z,360
2018-06-08T05:31:49.722Z,300
2018-06-08T05:32:59.551Z,360
2018-06-08T05:34:09.633Z,400
2018-06-08T05:35:19.709Z,400
2018-06-08T05:36:29.274Z,365
2018-06-08T05:37:39.389Z,275
2018-06-08T05:38:49.466Z,325
2018-06-08T05:39:59.543Z,345
2018-06-08T05:41:09.108Z,370
2018-06-08T05:42:19.227Z,310
2018-06-08T05:43:29.360Z,300
2018-06-08T05:44:39.163Z,275
2018-06-08T05:45:49.242Z,215
2018-06-08T05:46:59.073Z,190
2018-06-08T05:48:09.264Z,235
2018-06-08T05:49:19.427Z,215
2018-06-08T05:50:29.502Z,340
2018-06-08T05:51:39.343Z,255
2018-06-08T05:52:49.413Z,290
2018-06-08T05:53:59.482Z,285
2018-06-08T05:55:09.561Z,275
2018-06-08T05:56:19.417Z,310
2018-06-08T05:57:29.487Z,275
2018-06-08T05:58:39.549Z,315
2018-06-08T05:59:49.657Z,215
2018-06-08T06:00:59.630Z,260
2018-06-08T06:02:09.703Z,265
2018-06-08T06:03:19.795Z,225
2018-06-08T06:04:29.880Z,215
2018-06-08T06:05:39.954Z,260
2018-06-08T06:06:50.032Z,240
2018-06-08T06:08:00.115Z,165
2018-06-08T06:09:10.192Z,135
2018-06-08T06:10:20.030Z,125
2018-06-08T06:11:30.096Z,135
2018-06-08T06:12:39.907Z,160
2018-06-08T06:13:49.979Z,185
2018-06-08T06:15:00.289Z,215
2018-06-08T06:16:10.363Z,240
2018-06-08T06:17:20.449Z,230
2018-06-08T06:18:30.297Z,255
2018-06-08T06:19:40.381Z,225
2018-06-08T06:20:50.236Z,255
2018-06-08T06:22:00.328Z,245
2018-06-08T06:23:10.160Z,240
2018-06-08T06:24:20.236Z,245
2018-06-08T06:25:30.344Z,245
2018-06-08T06:26:40.188Z,275
2018-06-08T06:27:49.999Z,275
2018-06-08T06:29:00.097Z,240
2018-06-08T06:30:09.663Z,230
2018-06-08T06:31:19.737Z,220
2018-06-08T06:32:29.840Z,220
2018-06-08T06:33:39.902Z,210
2018-06-08T06:34:49.974Z,205
2018-06-08T06:36:00.056Z,235
2018-06-08T06:37:10.132Z,250
2018-06-08T06:38:20.217Z,225
2018-06-08T06:39:30.313Z,190
2018-06-08T06:40:40.129Z,160
2018-06-08T06:41:50.199Z,165
2018-06-08T06:43:00.298Z,170
2018-06-08T06:44:10.371Z,185
2018-06-08T06:45:20.440Z,220
2018-06-08T06:46:30.536Z,235
2018-06-08T06:47:40.612Z,240
2018-06-08T06:48:50.705Z,310
2018-06-08T06:50:00.799Z,315
2018-06-08T06:51:10.627Z,300
2018-06-08T06:52:20.705Z,310
2018-06-08T06:53:30.817Z,290
2018-06-08T06:54:40.904Z,275
2018-06-08T06:55:50.712Z,255
2018-06-08T06:57:00.776Z,265
2018-06-08T06:58:10.861Z,275
2018-06-08T06:59:20.924Z,280
2018-06-08T07:00:31.011Z,265
2018-06-08T07:01:41.099Z,260
2018-06-08T07:02:51.165Z,240
2018-06-08T07:04:01.257Z,230
2018-06-08T07:05:11.405Z,240
2018-06-08T07:06:21.232Z,240
2018-06-08T07:07:31.295Z,230
2018-06-08T07:08:41.368Z,195
2018-06-08T07:09:51.451Z,160
2018-06-08T07:11:01.004Z,155
2018-06-08T07:12:11.088Z,155
2018-06-08T07:13:21.174Z,150
2018-06-08T07:14:31.251Z,145
2018-06-08T07:15:41.075Z,140
2018-06-08T07:16:51.217Z,165
2018-06-08T07:18:01.037Z,215
2018-06-08T07:19:11.133Z,200
2018-06-08T07:20:21.233Z,180
2018-06-08T07:21:31.304Z,155
2018-06-08T07:22:41.128Z,155
2018-06-08T07:23:51.206Z,175
2018-06-08T07:25:01.420Z,155
2018-06-08T07:26:11.515Z,140
2018-06-08T07:27:21.585Z,135
2018-06-08T07:28:31.736Z,150
2018-06-08T07:29:41.829Z,155
2018-06-08T07:30:51.630Z,155
2018-06-08T07:32:01.726Z,155
2018-06-08T07:33:11.517Z,150
2018-06-08T07:34:21.675Z,145
2018-06-08T07:35:31.748Z,135
2018-06-08T07:36:41.560Z,125
2018-06-08T07:37:51.635Z,125
2018-06-08T07:39:01.455Z,140
2018-06-08T07:40:12.002Z,140
2018-06-08T07:41:21.379Z,125
2018-06-08T07:42:31.457Z,125
2018-06-08T07:43:41.558Z,140
2018-06-08T07:44:51.375Z,175
2018-06-08T07:46:01.456Z,190
2018-06-08T07:47:11.581Z,200
2018-06-08T07:48:21.643Z,210
2018-06-08T07:49:31.492Z,230
2018-06-08T07:50:41.575Z,240
2018-06-08T07:51:51.395Z,250
2018-06-08T07:53:01.252Z,265
2018-06-08T07:54:11.352Z,270
2018-06-08T07:55:21.180Z,265
2018-06-08T07:56:31.280Z,260
2018-06-08T07:57:41.352Z,255
2018-06-08T07:58:51.451Z,250
2018-06-08T08:00:01.522Z,280
2018-06-08T08:01:11.725Z,280
2018-06-08T08:02:21.814Z,290
2018-06-08T08:03:31.654Z,315
2018-06-08T08:04:41.522Z,295
2018-06-08T08:05:51.338Z,285
2018-06-08T08:07:01.424Z,300
2018-06-08T08:08:11.504Z,300
2018-06-08T08:09:21.549Z,315
2018-06-08T08:10:31.694Z,290
2018-06-08T08:11:41.770Z,305
2018-06-08T08:12:51.862Z,285
2018-06-08T08:14:01.675Z,295
2018-06-08T08:15:11.491Z,335
2018-06-08T08:16:21.609Z,325
2018-06-08T08:17:31.446Z,330
2018-06-08T08:18:41.542Z,360
2018-06-08T08:19:51.367Z,280
2018-06-08T08:21:00.930Z,260
2018-06-08T08:22:10.742Z,310
2018-06-08T08:23:20.568Z,290
2018-06-08T08:24:30.655Z,290
2018-06-08T08:25:40.737Z,285
2018-06-08T08:26:50.807Z,275
2018-06-08T08:28:00.901Z,325
2018-06-08T08:29:11.006Z,350
2018-06-08T08:30:21.098Z,340
2018-06-08T08:31:31.181Z,330
2018-06-08T08:32:41.244Z,320
2018-06-08T08:33:51.331Z,280
2018-06-08T08:35:01.431Z,265
2018-06-08T08:36:11.513Z,275
2018-06-08T08:37:21.613Z,265
2018-06-08T08:38:31.681Z,260
2018-06-08T08:39:41.906Z,330
2018-06-08T08:40:51.992Z,280
2018-06-08T08:42:02.099Z,305
2018-06-08T08:43:12.164Z,305
2018-06-08T08:44:22.270Z,240
2018-06-08T08:45:32.369Z,255
2018-06-08T08:46:42.455Z,265
2018-06-08T08:47:52.545Z,270
2018-06-08T08:49:02.674Z,350
2018-06-08T08:50:12.483Z,295
2018-06-08T08:51:22.627Z,315
2018-06-08T08:52:32.696Z,280
2018-06-08T08:53:42.769Z,260
2018-06-08T08:54:52.591Z,265
2018-06-08T08:56:02.682Z,280
2018-06-08T08:57:12.449Z,345
2018-06-08T08:58:21.997Z,355
2018-06-08T08:59:32.113Z,345
2018-06-08T09:00:42.186Z,285
2018-06-08T09:01:52.325Z,315
2018-06-08T09:03:02.154Z,305
2018-06-08T09:04:12.245Z,325
2018-06-08T09:05:22.317Z,275
2018-06-08T09:06:32.396Z,340
2018-06-08T09:07:42.584Z,340
2018-06-08T09:08:52.714Z,330
2018-06-08T09:10:02.858Z,240
2018-06-08T09:11:12.950Z,230
2018-06-08T09:12:22.784Z,250
2018-06-08T09:13:32.863Z,270
2018-06-08T09:14:42.940Z,265
2018-06-08T09:15:53.045Z,265
2018-06-08T09:17:03.125Z,300
2018-06-08T09:18:12.960Z,305
2018-06-08T09:19:22.820Z,355
2018-06-08T09:20:32.916Z,330
2018-06-08T09:21:43.006Z,310
2018-06-08T09:22:52.839Z,260
2018-06-08T09:24:02.923Z,245
2018-06-08T09:25:12.761Z,255
2018-06-08T09:26:22.907Z,280
2018-06-08T09:27:33.114Z,350
2018-06-08T09:28:43.215Z,335
2018-06-08T09:29:53.296Z,325
2018-06-08T09:31:02.930Z,260
2018-06-08T09:32:13.000Z,235
2018-06-08T09:33:23.239Z,235
2018-06-08T09:34:33.312Z,255
2018-06-08T09:35:43.405Z,265
2018-06-08T09:36:53.505Z,260
2018-06-08T09:38:03.651Z,255
2018-06-08T09:39:13.482Z,255
2018-06-08T09:40:23.324Z,255
2018-06-08T09:41:33.141Z,275
2018-06-08T09:42:43.216Z,290
2018-06-08T09:43:53.311Z,255
2018-06-08T09:45:03.404Z,240
2018-06-08T09:46:13.632Z,235
2018-06-08T09:47:23.784Z,235
2018-06-08T09:48:33.857Z,230
2018-06-08T09:49:43.793Z,235
2018-06-08T09:50:53.892Z,240
2018-06-08T09:52:03.719Z,235
2018-06-08T09:53:13.805Z,220
2018-06-08T09:54:23.904Z,215
2018-06-08T09:55:34.008Z,235
2018-06-08T09:56:44.110Z,250
2018-06-08T09:57:54.189Z,255
2018-06-08T09:59:04.282Z,255
2018-06-08T10:00:14.427Z,310
2018-06-08T10:01:24.504Z,300
2018-06-08T10:02:34.597Z,295
2018-06-08T10:03:44.691Z,265
2018-06-08T10:04:54.773Z,260
2018-06-08T10:06:04.842Z,255
2018-06-08T10:07:14.944Z,270
2018-06-08T10:08:24.772Z,335
2018-06-08T10:09:34.602Z,285
2018-06-08T10:10:44.689Z,280
2018-06-08T10:11:54.773Z,250
2018-06-08T10:13:04.902Z,250
2018-06-08T10:14:14.722Z,250
2018-06-08T10:15:24.556Z,290
2018-06-08T10:16:34.720Z,315
2018-06-08T10:17:44.804Z,345
2018-06-08T10:18:54.614Z,295
2018-06-08T10:20:04.719Z,240
2018-06-08T10:21:14.824Z,300
2018-06-08T10:22:24.921Z,300
2018-06-08T10:23:34.743Z,255
2018-06-08T10:24:44.875Z,305
2018-06-08T10:25:54.967Z,295
2018-06-08T10:27:05.059Z,295
2018-06-08T10:28:15.230Z,300
2018-06-08T10:29:25.356Z,300
2018-06-08T10:30:35.430Z,305
2018-06-08T10:31:45.524Z,305
2018-06-08T10:32:55.614Z,305
2018-06-08T10:34:05.864Z,310
2018-06-08T10:35:15.965Z,310
2018-06-08T10:36:26.057Z,310
2018-06-08T10:37:35.871Z,305
2018-06-08T10:38:45.963Z,305
2018-06-08T10:39:55.891Z,255
2018-06-08T10:41:06.059Z,295
2018-06-08T10:42:16.149Z,290
2018-06-08T10:43:25.980Z,230
2018-06-08T10:44:36.068Z,215
2018-06-08T10:45:46.176Z,290
2018-06-08T10:46:56.267Z,290
2018-06-08T10:48:06.202Z,290
2018-06-08T10:49:15.767Z,295
2018-06-08T10:50:25.862Z,305
2018-06-08T10:51:35.702Z,315
2018-06-08T10:52:45.797Z,315
2018-06-08T10:53:55.891Z,315
2018-06-08T10:55:06.019Z,305
2018-06-08T10:56:15.587Z,260
2018-06-08T10:57:25.437Z,210
2018-06-08T10:58:35.540Z,205
2018-06-08T10:59:45.641Z,215
2018-06-08T11:00:55.740Z,305
2018-06-08T11:02:05.841Z,245
2018-06-08T11:03:15.686Z,230
2018-06-08T11:04:25.756Z,315
2018-06-08T11:05:35.854Z,330
2018-06-08T11:06:45.930Z,330
2018-06-08T11:07:56.023Z,325
2018-06-08T11:09:06.102Z,320
2018-06-08T11:10:16.184Z,315
2018-06-08T11:11:26.068Z,320
2018-06-08T11:12:36.163Z,325
2018-06-08T11:13:46.251Z,320
2018-06-08T11:14:55.793Z,325
2018-06-08T11:16:05.634Z,315
2018-06-08T11:17:15.735Z,320
2018-06-08T11:18:25.824Z,310
2018-06-08T11:19:35.921Z,270
2018-06-08T11:20:46.010Z,250
2018-06-08T11:21:55.859Z,330
2018-06-08T11:23:05.945Z,325
2018-06-08T11:24:16.018Z,325
2018-06-08T11:25:26.106Z,330
2018-06-08T11:26:36.195Z,330
2018-06-08T11:27:46.013Z,335
2018-06-08T11:28:55.832Z,330
2018-06-08T11:30:05.927Z,325
2018-06-08T11:31:16.013Z,320
2018-06-08T11:32:25.824Z,325
2018-06-08T11:33:35.905Z,255
2018-06-08T11:34:45.993Z,345
2018-06-08T11:35:55.864Z,350
2018-06-08T11:37:05.685Z,355
2018-06-08T11:38:15.535Z,360
2018-06-08T11:39:25.954Z,350
2018-06-08T11:40:35.802Z,335
2018-06-08T11:41:45.627Z,325
2018-06-08T11:42:55.709Z,270
2018-06-08T11:44:05.791Z,265
2018-06-08T11:45:15.103Z,255
2018-06-08T11:46:25.260Z,290
2018-06-08T11:47:35.356Z,325
2018-06-08T11:48:45.210Z,320
2018-06-08T11:49:55.285Z,330
2018-06-08T11:51:05.113Z,275
2018-06-08T11:52:14.989Z,250
2018-06-08T11:53:25.291Z,330
2018-06-08T11:54:35.148Z,320
2018-06-08T11:55:45.255Z,245
2018-06-08T11:56:55.364Z,235
2018-06-08T11:58:05.199Z,230
2018-06-08T11:59:14.749Z,280
2018-06-08T12:00:24.957Z,315
2018-06-08T12:01:34.526Z,315
2018-06-08T12:02:44.613Z,265
2018-06-08T12:03:54.452Z,275
2018-06-08T12:05:04.537Z,260
2018-06-08T12:06:14.357Z,235
2018-06-08T12:07:24.177Z,225
2018-06-08T12:08:34.265Z,220
2018-06-08T12:09:44.093Z,205
2018-06-08T12:10:53.922Z,200
2018-06-08T12:12:03.751Z,210
2018-06-08T12:13:13.866Z,280
2018-06-08T12:14:23.948Z,255
2018-06-08T12:15:34.033Z,305
2018-06-08T12:16:44.126Z,305
2018-06-08T12:17:54.527Z,225
2018-06-08T12:19:06.082Z,210
2018-06-08T12:20:16.070Z,210
2018-06-08T12:21:26.160Z,300
2018-06-08T12:22:36.286Z,260
2018-06-08T12:23:46.410Z,330
2018-06-08T12:24:56.262Z,330
2018-06-08T12:26:06.372Z,330
2018-06-08T12:27:16.468Z,320
2018-06-08T12:28:26.564Z,320
2018-06-08T12:29:36.675Z,315
2018-06-08T12:30:46.703Z,310
2018-06-08T12:31:56.865Z,300
2018-06-08T12:33:06.967Z,295
2018-06-08T12:34:17.069Z,285
2018-06-08T12:35:26.894Z,285
2018-06-08T12:36:36.992Z,285
2018-06-08T12:37:47.121Z,230
2018-06-08T12:38:57.225Z,285
2018-06-08T12:40:07.304Z,290
2018-06-08T12:41:17.494Z,295
2018-06-08T12:42:27.592Z,305
2018-06-08T12:43:38.047Z,305
2018-06-08T12:44:48.257Z,315
2018-06-08T12:45:58.332Z,315
2018-06-08T12:47:08.471Z,320
2018-06-08T12:48:18.588Z,315
2018-06-08T12:49:28.679Z,255
2018-06-08T12:50:38.584Z,240
2018-06-08T12:51:48.500Z,250
2018-06-08T12:52:58.319Z,295
2018-06-08T12:54:08.438Z,290
2018-06-08T12:55:18.541Z,290
2018-06-08T12:56:28.431Z,280
2018-06-08T12:57:38.532Z,245
2018-06-08T12:58:48.624Z,245
2018-06-08T12:59:58.751Z,240
2018-06-08T13:01:08.599Z,245
2018-06-08T13:02:18.713Z,300
2018-06-08T13:03:28.810Z,300
2018-06-08T13:04:38.643Z,290
2018-06-08T13:05:48.462Z,280
2018-06-08T13:06:58.548Z,245
2018-06-08T13:08:08.662Z,235
2018-06-08T13:09:18.290Z,215
2018-06-08T13:10:28.106Z,205
2018-06-08T13:11:38.203Z,215
2018-06-08T13:12:48.299Z,215
2018-06-08T13:13:58.390Z,250
2018-06-08T13:15:08.362Z,210
2018-06-08T13:16:18.472Z,205
2018-06-08T13:17:28.559Z,240
2018-06-08T13:18:38.396Z,225
2018-06-08T13:19:48.221Z,260
2018-06-08T13:20:58.331Z,255
2018-06-08T13:22:08.441Z,250
2018-06-08T13:23:18.557Z,245
2018-06-08T13:24:28.806Z,240
2018-06-08T13:25:38.966Z,235
2018-06-08T13:26:49.052Z,235
2018-06-08T13:27:59.147Z,220
2018-06-08T13:29:08.702Z,210
2018-06-08T13:30:18.519Z,195
2018-06-08T13:31:28.621Z,215
2018-06-08T13:32:39.750Z,230
2018-06-08T13:33:49.610Z,240
2018-06-08T13:34:58.929Z,225
2018-06-08T13:36:08.498Z,225
2018-06-08T13:37:18.615Z,225
2018-06-08T13:38:28.185Z,230
2018-06-08T13:39:38.441Z,230
2018-06-08T13:40:48.578Z,235
2018-06-08T13:41:58.671Z,245
2018-06-08T13:43:08.779Z,240
2018-06-08T13:44:18.606Z,240
2018-06-08T13:45:28.714Z,210
2018-06-08T13:46:38.819Z,245
2018-06-08T13:47:48.910Z,215
2018-06-08T13:48:59.022Z,260
2018-06-08T13:50:09.154Z,260
2018-06-08T13:51:19.241Z,260
2018-06-08T13:52:29.375Z,260
2018-06-08T13:53:39.496Z,265
2018-06-08T13:54:49.594Z,260
2018-06-08T13:55:59.470Z,260
2018-06-08T13:57:09.583Z,255
2018-06-08T13:58:19.446Z,250
2018-06-08T13:59:29.543Z,250
2018-06-08T14:00:39.377Z,260
2018-06-08T14:01:49.488Z,230
2018-06-08T14:02:59.330Z,225
2018-06-08T14:04:08.886Z,275
2018-06-08T14:05:18.710Z,265
2018-06-08T14:06:28.835Z,235
2018-06-08T14:07:38.949Z,280
2018-06-08T14:08:49.034Z,280
2018-06-08T14:09:59.114Z,270
2018-06-08T14:11:08.967Z,265
2018-06-08T14:12:19.067Z,255
2018-06-08T14:13:29.174Z,255
2018-06-08T14:14:39.268Z,250
2018-06-08T14:15:49.387Z,245
2018-06-08T14:16:59.500Z,240
2018-06-08T14:18:09.631Z,220
2018-06-08T14:19:19.744Z,190
2018-06-08T14:20:29.859Z,240
2018-06-08T14:21:39.955Z,245
2018-06-08T14:22:50.064Z,245
2018-06-08T14:24:00.176Z,240
2018-06-08T14:25:10.255Z,235
2018-06-08T14:26:20.107Z,235
2018-06-08T14:27:30.002Z,200
2018-06-08T14:28:40.126Z,180
2018-06-08T14:29:50.212Z,220
2018-06-08T14:31:00.050Z,215
2018-06-08T14:32:10.143Z,215
2018-06-08T14:33:20.239Z,175
2018-06-08T14:34:30.084Z,205
2018-06-08T14:35:40.189Z,215
2018-06-08T14:36:50.064Z,205
2018-06-08T14:37:59.936Z,225
2018-06-08T14:39:10.033Z,225
2018-06-08T14:40:20.136Z,225
2018-06-08T14:41:30.247Z,210
2018-06-08T14:42:40.081Z,185
2018-06-08T14:43:50.177Z,215
2018-06-08T14:45:00.291Z,185
2018-06-08T14:46:10.121Z,210
2018-06-08T14:47:20.319Z,215
2018-06-08T14:48:30.701Z,205
2018-06-08T14:49:40.774Z,205
2018-06-08T14:50:50.629Z,195
2018-06-08T14:52:00.775Z,195
2018-06-08T14:53:10.619Z,195
2018-06-08T14:54:20.757Z,190
2018-06-08T14:55:30.891Z,190
2018-06-08T14:56:40.740Z,190
2018-06-08T14:57:50.833Z,190
2018-06-08T14:59:00.264Z,190
2018-06-08T15:00:10.426Z,185
2018-06-08T15:01:20.567Z,180
2018-06-08T15:02:30.665Z,180
2018-06-08T15:03:40.760Z,185
2018-06-08T15:04:50.966Z,185
2018-06-08T15:06:00.537Z,185
2018-06-08T15:07:10.631Z,185
2018-06-08T15:08:20.738Z,185
2018-06-08T15:09:30.841Z,185
2018-06-08T15:10:40.953Z,190
2018-06-08T15:11:51.127Z,190
2018-06-08T15:13:00.954Z,190
2018-06-08T15:14:11.066Z,170
2018-06-08T15:15:21.142Z,165
2018-06-08T15:16:31.267Z,170
2018-06-08T15:17:41.235Z,160
2018-06-08T15:18:51.326Z,150
2018-06-08T15:20:01.425Z,170
2018-06-08T15:21:11.531Z,145
2018-06-08T15:22:21.624Z,135
2018-06-08T15:23:31.454Z,145
2018-06-08T15:24:41.559Z,175
2018-06-08T15:25:51.648Z,175
2018-06-08T15:27:01.756Z,180
2018-06-08T15:28:11.839Z,175
2018-06-08T15:29:21.816Z,155
2018-06-08T15:30:31.830Z,180
2018-06-08T15:31:41.657Z,180
2018-06-08T15:32:51.744Z,175
2018-06-08T15:34:01.842Z,180
2018-06-08T15:35:12.042Z,180
2018-06-08T15:36:22.121Z,180
2018-06-08T15:37:32.228Z,180
2018-06-08T15:38:42.307Z,185
2018-06-08T15:39:52.141Z,185
2018-06-08T15:41:02.044Z,190
2018-06-08T15:42:11.874Z,200
2018-06-08T15:43:21.721Z,200
2018-06-08T15:44:31.559Z,195
2018-06-08T15:45:41.644Z,185
2018-06-08T15:46:51.748Z,180
2018-06-08T15:48:01.582Z,175
2018-06-08T15:49:11.912Z,175
2018-06-08T15:50:22.024Z,175
2018-06-08T15:51:31.869Z,175
2018-06-08T15:52:41.984Z,175
2018-06-08T15:53:51.872Z,175
2018-06-08T15:55:02.040Z,165
2018-06-08T15:56:12.183Z,160
2018-06-08T15:57:22.028Z,150
2018-06-08T15:58:32.193Z,150
2018-06-08T15:59:42.023Z,150
2018-06-08T16:00:52.316Z,150
2018-06-08T16:02:02.432Z,150
2018-06-08T16:03:12.534Z,150
2018-06-08T16:04:22.637Z,150
2018-06-08T16:05:32.734Z,155
2018-06-08T16:06:42.829Z,150
2018-06-08T16:07:52.960Z,150
2018-06-08T16:09:02.831Z,150
2018-06-08T16:10:12.923Z,155
2018-06-08T16:11:22.740Z,145
2018-06-08T16:12:32.831Z,135
2018-06-08T16:13:42.656Z,135
2018-06-08T16:14:52.755Z,145
2018-06-08T16:16:02.836Z,145
2018-06-08T16:17:12.684Z,145
2018-06-08T16:18:22.801Z,145
2018-06-08T16:19:32.910Z,130
2018-06-08T16:20:43.000Z,140
2018-06-08T16:21:52.832Z,135
2018-06-08T16:23:02.923Z,135
2018-06-08T16:24:13.021Z,130
2018-06-08T16:25:23.120Z,130
2018-06-08T16:26:33.232Z,135
2018-06-08T16:27:43.395Z,125
2018-06-08T16:28:53.494Z,120
2018-06-08T16:30:03.737Z,115
2018-06-08T16:31:13.880Z,110
2018-06-08T16:32:23.992Z,105
2018-06-08T16:33:33.840Z,100
2018-06-08T16:34:43.947Z,100
2018-06-08T16:35:54.043Z,110
2018-06-08T16:37:04.137Z,100
2018-06-08T16:38:14.231Z,100
2018-06-08T16:39:24.393Z,100
2018-06-08T16:40:34.511Z,100
2018-06-08T16:41:44.839Z,105
2018-06-08T16:42:54.743Z,105
2018-06-08T16:44:04.847Z,105
2018-06-08T16:45:14.943Z,105
2018-06-08T16:46:24.823Z,105
2018-06-08T16:47:34.931Z,105
2018-06-08T16:48:45.027Z,105
2018-06-08T16:49:54.868Z,105